Helena — SCGL — position and weather

sailwx.info

Track history (hours):
 
Tides and Currents Weather Stations Pressure Air Temp Water Temp Dewpoint Dewpoint Depression Visibility Wind Speed Wind Dir Waves Ship Positions

Helena

Last reported at 2015-Jan-31 20:23 UTC. Time now 2015-Jan-31 21:14 UTC.
Position N 55°39' E 015°16'.

Length 169 m; draft 7.2 m.

Type: Cargo ship. MMSI: 265145000.

Date/timePositionNaut miles runAvg speedWind from/ knotsBaromVisibWave heightAir tempDewpointWater temp
2015-Jan-31 20:23N 55°39' E 015°16'10112.8
2015-Jan-31 12:33N 56°58' E 017°09'1313.3
2015-Jan-31 11:33N 57°11' E 017°16'1414.2
2015-Jan-31 10:33N 57°23' E 017°30'  
2015-Jan-27 10:34N 57°09' E 017°35'11015.5
2015-Jan-27 03:28N 55°42' E 015°34'1516.2
2015-Jan-27 02:33N 55°34' E 015°11'1616.4
2015-Jan-27 01:33N 55°26' E 014°46'1616.1
2015-Jan-27 00:33N 55°14' E 014°26'1616.5
2015-Jan-26 23:34N 55°01' E 014°09'1716.5
2015-Jan-26 22:33N 54°55' E 013°42'1716.5
2015-Jan-26 21:31N 54°50' E 013°13'1616.5
2015-Jan-26 20:33N 54°45' E 012°47'1616.0
2015-Jan-26 19:33N 54°35' E 012°26'1515.1
2015-Jan-26 18:34N 54°24' E 012°07'1616.1
2015-Jan-26 17:34N 54°18' E 011°43'1716.5
2015-Jan-26 16:33N 54°08' E 011°19'6 0.4
2015-Jan-26 02:19N 54°07' E 011°10'811.3
2015-Jan-26 01:33N 54°12' E 011°21'1111.4
2015-Jan-26 00:33N 54°18' E 011°37'1111.3
2015-Jan-25 23:34N 54°25' E 011°53'1110.7
2015-Jan-25 22:33N 54°28' E 012°11'1010.4
2015-Jan-25 21:33N 54°38' E 012°18'1110.9
2015-Jan-25 20:33N 54°44' E 012°33'1110.9
2015-Jan-25 19:33N 54°49' E 012°50'1111.0
2015-Jan-25 18:33N 54°53' E 013°08'11 9.9
2015-Jan-25 17:29N 54°56' E 013°25'8 8.7
2015-Jan-25 16:33N 54°59' E 013°39'23 7.7
2015-Jan-25 13:30N 55°12' E 014°13'8 8.1
2015-Jan-25 12:28N 55°18' E 014°23'9 9.2
2015-Jan-25 11:32N 55°25' E 014°32'10 9.9
2015-Jan-25 10:32N 55°30' E 014°47'10 9.9
2015-Jan-25 09:31N 55°35' E 015°02'1010.1
2015-Jan-25 08:33N 55°40' E 015°17'104 9.4
2015-Jan-24 21:33N 57°02' E 017°11'1110.6
2015-Jan-24 20:33N 57°12' E 017°17'1010.3
2015-Jan-24 19:33N 57°21' E 017°28'10 9.5
2015-Jan-24 18:29N 57°30' E 017°37'  
Track history (hours):
 
Tides and Currents Weather Stations Pressure Air Temp Water Temp Dewpoint Dewpoint Depression Visibility Wind Speed Wind Dir Waves Ship Positions

Helena

Last reported at 2015-Jan-31 20:23 UTC. Time now 2015-Jan-31 21:14 UTC.
Position N 55°39' E 015°16'.

Length 169 m; draft 7.2 m.

Type: Cargo ship. MMSI: 265145000.

Date/timePositionNaut miles runAvg speedWind from/ knotsBaromVisibWave heightAir tempDewpointWater temp
2015-Jan-31 20:23N 55°39' E 015°16'10112.8
2015-Jan-31 12:33N 56°58' E 017°09'1313.3
2015-Jan-31 11:33N 57°11' E 017°16'1414.2
2015-Jan-31 10:33N 57°23' E 017°30'  
2015-Jan-27 10:34N 57°09' E 017°35'11015.5
2015-Jan-27 03:28N 55°42' E 015°34'1516.2
2015-Jan-27 02:33N 55°34' E 015°11'1616.4
2015-Jan-27 01:33N 55°26' E 014°46'1616.1
2015-Jan-27 00:33N 55°14' E 014°26'1616.5
2015-Jan-26 23:34N 55°01' E 014°09'1716.5
2015-Jan-26 22:33N 54°55' E 013°42'1716.5
2015-Jan-26 21:31N 54°50' E 013°13'1616.5
2015-Jan-26 20:33N 54°45' E 012°47'1616.0
2015-Jan-26 19:33N 54°35' E 012°26'1515.1
2015-Jan-26 18:34N 54°24' E 012°07'1616.1
2015-Jan-26 17:34N 54°18' E 011°43'1716.5
2015-Jan-26 16:33N 54°08' E 011°19'6 0.4
2015-Jan-26 02:19N 54°07' E 011°10'811.3
2015-Jan-26 01:33N 54°12' E 011°21'1111.4
2015-Jan-26 00:33N 54°18' E 011°37'1111.3
2015-Jan-25 23:34N 54°25' E 011°53'1110.7
2015-Jan-25 22:33N 54°28' E 012°11'1010.4
2015-Jan-25 21:33N 54°38' E 012°18'1110.9
2015-Jan-25 20:33N 54°44' E 012°33'1110.9
2015-Jan-25 19:33N 54°49' E 012°50'1111.0
2015-Jan-25 18:33N 54°53' E 013°08'11 9.9
2015-Jan-25 17:29N 54°56' E 013°25'8 8.7
2015-Jan-25 16:33N 54°59' E 013°39'23 7.7
2015-Jan-25 13:30N 55°12' E 014°13'8 8.1
2015-Jan-25 12:28N 55°18' E 014°23'9 9.2
2015-Jan-25 11:32N 55°25' E 014°32'10 9.9
2015-Jan-25 10:32N 55°30' E 014°47'10 9.9
2015-Jan-25 09:31N 55°35' E 015°02'1010.1
2015-Jan-25 08:33N 55°40' E 015°17'104 9.4
2015-Jan-24 21:33N 57°02' E 017°11'1110.6
2015-Jan-24 20:33N 57°12' E 017°17'1010.3
2015-Jan-24 19:33N 57°21' E 017°28'10 9.5
2015-Jan-24 18:29N 57°30' E 017°37'  

Dump ship's entire track history